Time;durP1;ratioP1;P1;durP2;ratioP2;P2;SDS_P1;SDS_P2;PMS_P1;PMS_P2;Temp;Humidity;BMP_temperature;BMP_pressure;BME280_temperature;BME280_humidity;BME280_pressure;Samples;Min_cycle;Max_cycle;Signal;HPM_P1;HPM_P2
2020/12/27 00:01:54;;;;;;;7.88;3.78;;;4.30;91.20;;;;;;10518209;28;20072;-73
2020/12/27 00:07:09;;;;;;;5.75;3.33;;;4.30;91.20;;;;;;10535099;28;20052;-73
2020/12/27 00:12:12;;;;;;;8.88;4.15;;;4.20;91.00;;;;;;10540554;28;20052;-73
2020/12/27 00:17:13;;;;;;;15.85;6.78;;;4.20;91.30;;;;;;10519822;28;20053;-73
2020/12/27 00:22:16;;;;;;;18.23;9.10;;;4.30;91.50;;;;;;10514089;28;20044;-73
2020/12/27 00:27:18;;;;;;;6.70;3.80;;;4.20;91.60;;;;;;10533509;28;20040;-73
2020/12/27 00:32:19;;;;;;;9.02;4.75;;;4.10;91.50;;;;;;10526017;28;20051;-73
2020/12/27 00:37:25;;;;;;;7.50;3.70;;;4.00;91.50;;;;;;10512629;28;20047;-73
2020/12/27 00:42:26;;;;;;;6.93;3.42;;;4.00;91.70;;;;;;10535703;28;20101;-73
2020/12/27 00:47:28;;;;;;;6.53;3.72;;;4.00;91.60;;;;;;10529611;28;20125;-73
2020/12/27 00:52:29;;;;;;;7.65;3.50;;;4.00;91.70;;;;;;10531069;28;20044;-73
2020/12/27 00:57:31;;;;;;;5.28;3.30;;;3.90;91.80;;;;;;10538214;28;20079;-73
2020/12/27 01:02:32;;;;;;;6.90;3.28;;;3.90;91.90;;;;;;10539776;28;20044;-73
2020/12/27 01:07:43;;;;;;;6.77;3.60;;;3.90;92.00;;;;;;10539991;28;20083;-73
2020/12/27 01:12:47;;;;;;;6.82;3.90;;;3.90;92.00;;;;;;10539995;28;20294;-73
2020/12/27 01:17:48;;;;;;;6.20;2.88;;;3.80;91.90;;;;;;10503257;28;20054;-73
2020/12/27 01:22:50;;;;;;;7.18;3.15;;;3.80;91.80;;;;;;10527894;28;20400;-73
2020/12/27 01:27:51;;;;;;;5.32;3.20;;;3.90;91.90;;;;;;10527070;28;20046;-73
2020/12/27 01:32:53;;;;;;;4.88;2.95;;;4.00;91.80;;;;;;10517642;28;20097;-73
2020/12/27 01:38:06;;;;;;;5.05;2.85;;;4.10;91.80;;;;;;10537785;28;20039;-73
2020/12/27 01:43:07;;;;;;;5.53;2.92;;;4.20;91.40;;;;;;10536991;28;20127;-72
2020/12/27 01:48:13;;;;;;;6.35;2.75;;;4.30;91.30;;;;;;10537944;28;20044;-72
2020/12/27 01:53:14;;;;;;;5.88;2.85;;;4.40;91.10;;;;;;10539644;28;20282;-73
2020/12/27 01:58:18;;;;;;;6.80;3.00;;;4.20;91.10;;;;;;10537077;28;20102;-73
2020/12/27 02:03:19;;;;;;;4.90;3.00;;;4.20;91.30;;;;;;10538649;28;20048;-73
2020/12/27 02:08:22;;;;;;;3.92;2.78;;;4.10;91.40;;;;;;10538266;28;20040;-73
2020/12/27 02:13:23;;;;;;;5.82;2.75;;;4.10;91.30;;;;;;10538229;28;20044;-72
2020/12/27 02:18:25;;;;;;;5.70;2.38;;;4.00;91.70;;;;;;10537881;28;20070;-73
2020/12/27 02:23:26;;;;;;;4.10;2.50;;;4.00;91.40;;;;;;10537768;28;20747;-73
2020/12/27 02:28:28;;;;;;;7.03;2.40;;;4.00;91.70;;;;;;10537380;28;20048;-73
2020/12/27 02:33:30;;;;;;;5.65;2.47;;;3.90;92.10;;;;;;10536707;28;20048;-73
2020/12/27 02:38:40;;;;;;;4.10;2.17;;;3.90;92.00;;;;;;10537511;28;20508;-73
2020/12/27 02:43:44;;;;;;;4.63;2.25;;;3.80;91.90;;;;;;10536098;28;20083;-73
2020/12/27 02:48:46;;;;;;;4.38;2.10;;;3.90;92.00;;;;;;10536677;28;20040;-73
2020/12/27 02:53:48;;;;;;;6.18;2.28;;;3.90;91.90;;;;;;10537232;28;20044;-72
2020/12/27 02:58:52;;;;;;;3.70;2.08;;;3.80;91.90;;;;;;10533238;28;20048;-73
2020/12/27 03:03:54;;;;;;;5.60;2.20;;;3.90;92.00;;;;;;10535108;28;20064;-72
2020/12/27 03:09:02;;;;;;;5.07;2.30;;;3.90;91.90;;;;;;10534690;28;20075;-72
2020/12/27 03:14:06;;;;;;;4.70;2.45;;;3.90;91.80;;;;;;10536441;28;20062;-73
2020/12/27 03:19:07;;;;;;;4.75;2.60;;;3.90;91.90;;;;;;10535532;28;20106;-73
2020/12/27 03:24:09;;;;;;;5.95;2.60;;;3.80;92.10;;;;;;10536068;28;20052;-73
2020/12/27 03:29:10;;;;;;;5.65;2.50;;;3.80;92.50;;;;;;10531590;28;20058;-73
2020/12/27 03:34:13;;;;;;;5.18;2.80;;;3.80;92.20;;;;;;10535285;28;20048;-72
2020/12/27 03:39:18;;;;;;;6.07;2.30;;;3.80;92.40;;;;;;10535769;28;20052;-72
2020/12/27 03:44:20;;;;;;;5.57;2.70;;;3.90;92.20;;;;;;10534743;28;20040;-73
2020/12/27 03:49:22;;;;;;;4.43;2.70;;;4.00;92.10;;;;;;10535314;28;20062;-73
2020/12/27 03:54:23;;;;;;;6.50;2.40;;;3.90;92.40;;;;;;10535393;28;20051;-73
2020/12/27 03:59:25;;;;;;;5.35;2.40;;;3.90;91.80;;;;;;10534684;28;20077;-72
2020/12/27 04:04:26;;;;;;;6.80;2.47;;;3.90;91.70;;;;;;10534461;28;20869;-73
2020/12/27 04:09:37;;;;;;;5.05;2.20;;;3.90;91.70;;;;;;10534823;28;20079;-73
2020/12/27 04:14:39;;;;;;;4.80;2.83;;;3.80;91.60;;;;;;10533003;28;20365;-72
2020/12/27 04:19:40;;;;;;;6.30;3.13;;;3.80;91.70;;;;;;10535443;28;20083;-73
2020/12/27 04:24:42;;;;;;;9.32;6.05;;;3.70;91.50;;;;;;10541184;28;20079;-73
2020/12/27 04:29:43;;;;;;;5.32;3.08;;;3.80;91.60;;;;;;10541716;28;20048;-73
2020/12/27 04:34:45;;;;;;;6.25;3.95;;;3.80;91.50;;;;;;10512166;28;20052;-73
2020/12/27 04:39:59;;;;;;;4.75;3.30;;;3.80;91.70;;;;;;10527308;28;20052;-73
2020/12/27 04:45:03;;;;;;;4.75;2.28;;;3.80;91.70;;;;;;10540561;28;20142;-73
2020/12/27 04:50:04;;;;;;;5.60;2.47;;;3.70;91.70;;;;;;10541427;28;20051;-73
2020/12/27 04:55:08;;;;;;;4.45;2.20;;;3.90;91.70;;;;;;10539769;28;20048;-73
2020/12/27 05:00:10;;;;;;;4.78;2.63;;;3.90;91.50;;;;;;10540234;28;20487;-73
2020/12/27 05:05:15;;;;;;;4.10;2.38;;;3.90;91.50;;;;;;10541544;28;20105;-73
2020/12/27 05:10:16;;;;;;;3.55;2.05;;;4.00;91.60;;;;;;10540520;28;20073;-73
2020/12/27 05:15:18;;;;;;;3.67;2.15;;;4.00;91.60;;;;;;10540080;28;20117;-73
2020/12/27 05:20:19;;;;;;;3.28;2.10;;;4.10;91.40;;;;;;10540385;28;20106;-73
2020/12/27 05:25:21;;;;;;;3.97;2.45;;;4.00;91.10;;;;;;10539946;28;20043;-72
2020/12/27 05:30:27;;;;;;;4.07;2.10;;;4.00;91.30;;;;;;10539361;28;20075;-73
2020/12/27 05:35:28;;;;;;;4.47;1.85;;;4.10;91.40;;;;;;10539306;28;20044;-73
2020/12/27 05:40:38;;;;;;;3.35;1.80;;;4.10;91.10;;;;;;10540293;28;20130;-73
2020/12/27 05:45:41;;;;;;;3.15;2.00;;;4.10;91.10;;;;;;10538720;28;20238;-73
2020/12/27 05:50:42;;;;;;;4.75;2.00;;;4.20;90.90;;;;;;10539184;28;20139;-73
2020/12/27 05:55:46;;;;;;;4.15;1.80;;;4.20;91.20;;;;;;10538315;28;20071;-73
2020/12/27 06:00:52;;;;;;;5.15;2.05;;;4.30;91.00;;;;;;10538177;28;20043;-72
2020/12/27 06:06:08;;;;;;;5.30;2.28;;;4.30;91.10;;;;;;10538859;28;20101;-72
2020/12/27 06:11:35;;;;;;;4.18;1.92;;;4.30;90.90;;;;;;10537312;28;20083;-73
2020/12/27 06:16:49;;;;;;;3.25;1.75;;;4.40;91.10;;;;;;10537353;28;20196;-72
2020/12/27 06:22:07;;;;;;;3.60;1.80;;;4.40;91.10;;;;;;10536216;28;20048;-73
2020/12/27 06:27:11;;;;;;;5.72;2.17;;;4.40;90.60;;;;;;10514336;28;20041;-72
2020/12/27 06:32:19;;;;;;;3.13;2.00;;;4.40;91.00;;;;;;10521713;28;20079;-72
2020/12/27 06:37:21;;;;;;;3.85;2.10;;;4.40;91.10;;;;;;10494900;28;20447;-72
2020/12/27 06:42:29;;;;;;;4.57;2.10;;;4.40;90.90;;;;;;10537433;28;20109;-72
2020/12/27 06:47:50;;;;;;;5.55;2.35;;;4.40;90.70;;;;;;10534434;28;20040;-72
2020/12/27 06:52:52;;;;;;;4.68;2.38;;;4.40;91.10;;;;;;10536898;28;20514;-73
2020/12/27 06:57:53;;;;;;;4.35;2.30;;;4.40;91.30;;;;;;10536855;28;20060;-73
2020/12/27 07:03:17;;;;;;;5.10;2.78;;;4.40;91.40;;;;;;10536731;28;20075;-72
2020/12/27 07:08:41;;;;;;;4.07;2.25;;;4.40;91.40;;;;;;10535897;28;20044;-72
2020/12/27 07:13:46;;;;;;;4.32;2.50;;;4.40;91.40;;;;;;10518653;28;20087;-72
2020/12/27 07:18:49;;;;;;;5.15;2.40;;;4.40;91.40;;;;;;10503818;28;20056;-72
2020/12/27 07:24:08;;;;;;;11.52;5.63;;;4.30;91.80;;;;;;10535804;28;20545;-72
2020/12/27 07:29:14;;;;;;;10.48;4.78;;;4.50;91.80;;;;;;10507233;28;20079;-72
2020/12/27 07:34:16;;;;;;;3.92;2.10;;;4.40;92.20;;;;;;10534528;28;20047;-72
2020/12/27 07:39:18;;;;;;;8.50;4.20;;;4.40;91.90;;;;;;10535335;28;20460;-71
2020/12/27 07:44:20;;;;;;;4.57;2.28;;;4.30;92.60;;;;;;10534408;28;20476;-73
2020/12/27 07:49:24;;;;;;;5.50;2.83;;;4.30;92.40;;;;;;10535523;28;20157;-72
2020/12/27 07:54:25;;;;;;;4.75;2.53;;;4.40;92.50;;;;;;10535781;28;20081;-73
2020/12/27 07:59:27;;;;;;;5.68;2.10;;;4.50;92.70;;;;;;10529910;28;20079;-73
2020/12/27 08:04:28;;;;;;;5.15;2.20;;;4.60;92.60;;;;;;10542165;28;20574;-73
2020/12/27 08:09:30;;;;;;;3.72;1.88;;;4.60;92.70;;;;;;10541678;28;20058;-73
2020/12/27 08:14:31;;;;;;;3.85;2.00;;;4.70;92.80;;;;;;10540180;28;20052;-73
2020/12/27 08:19:33;;;;;;;3.80;1.83;;;4.80;92.80;;;;;;10536236;28;20424;-72
2020/12/27 08:24:34;;;;;;;3.42;2.00;;;4.90;93.00;;;;;;10538536;28;20036;-72
2020/12/27 08:29:36;;;;;;;3.55;1.67;;;4.90;92.80;;;;;;10529802;28;20044;-73
2020/12/27 08:34:44;;;;;;;3.20;1.60;;;5.00;92.60;;;;;;10539693;28;20075;-72
2020/12/27 08:39:55;;;;;;;3.67;2.00;;;5.10;92.50;;;;;;10540086;28;20078;-72
2020/12/27 08:44:59;;;;;;;3.30;1.80;;;5.20;92.30;;;;;;10537569;28;20131;-72
2020/12/27 08:50:09;;;;;;;3.03;1.60;;;5.10;92.60;;;;;;10530335;28;20053;-72
2020/12/27 08:55:12;;;;;;;4.40;2.50;;;5.10;92.70;;;;;;10540189;28;20082;-72
2020/12/27 09:00:14;;;;;;;3.60;1.77;;;5.10;92.60;;;;;;10504210;28;20508;-72
2020/12/27 09:05:15;;;;;;;2.70;1.50;;;5.10;92.50;;;;;;10521074;28;20078;-73
2020/12/27 09:10:22;;;;;;;4.03;2.10;;;5.20;92.40;;;;;;10538058;28;20508;-73
2020/12/27 09:15:33;;;;;;;2.78;1.65;;;5.10;92.60;;;;;;10537509;28;20052;-73
2020/12/27 09:20:35;;;;;;;;;;;5.20;92.50;;;;;;10527651;28;20086;-73
2020/12/27 09:25:37;;;;;;;4.75;2.10;;;5.30;92.60;;;;;;10525650;28;19928;-72
2020/12/27 09:30:40;;;;;;;5.13;1.83;;;5.30;92.70;;;;;;10527788;28;20063;-73
2020/12/27 09:35:42;;;;;;;3.45;1.70;;;5.30;92.50;;;;;;10526871;28;20093;-73
2020/12/27 09:40:43;;;;;;;3.80;2.47;;;5.30;92.60;;;;;;10532884;28;20143;-73
2020/12/27 09:45:45;;;;;;;3.17;2.03;;;5.40;92.40;;;;;;10497984;28;20507;-73
2020/12/27 09:50:47;;;;;;;5.28;2.42;;;5.30;92.70;;;;;;10526600;28;20155;-73
2020/12/27 09:55:48;;;;;;;5.13;3.40;;;5.20;92.50;;;;;;10534702;28;20526;-72
2020/12/27 10:00:49;;;;;;;4.57;2.70;;;5.40;92.60;;;;;;10511731;28;20701;-73
2020/12/27 10:05:51;;;;;;;3.67;1.70;;;5.40;92.50;;;;;;10534599;28;20044;-73
2020/12/27 10:10:53;;;;;;;4.93;3.13;;;5.40;92.50;;;;;;10532103;28;20040;-72
2020/12/27 10:15:54;;;;;;;6.35;2.75;;;5.40;92.50;;;;;;10533878;28;20140;-72
2020/12/27 10:20:55;;;;;;;5.50;3.78;;;5.50;92.70;;;;;;10534976;28;20105;-72
2020/12/27 10:25:57;;;;;;;3.78;2.40;;;5.60;92.60;;;;;;10516597;28;20044;-72
2020/12/27 10:30:58;;;;;;;8.40;4.38;;;5.50;92.50;;;;;;10531510;28;20515;-72
2020/12/27 10:36:00;;;;;;;4.88;2.70;;;5.70;92.20;;;;;;10533433;28;20040;-72
2020/12/27 10:41:02;;;;;;;3.70;2.10;;;5.60;92.10;;;;;;10531758;28;20121;-71
2020/12/27 10:46:04;;;;;;;5.25;2.50;;;5.70;92.10;;;;;;10509496;28;20051;-72
2020/12/27 10:51:06;;;;;;;5.72;2.80;;;5.70;91.80;;;;;;10518323;28;20052;-72
2020/12/27 10:56:07;;;;;;;4.15;2.40;;;5.70;91.50;;;;;;10535035;28;20075;-72
2020/12/27 11:01:09;;;;;;;5.53;3.13;;;5.50;91.40;;;;;;10513008;28;20239;-71
2020/12/27 11:06:10;;;;;;;5.35;2.78;;;5.50;91.70;;;;;;10506781;28;20087;-72
2020/12/27 11:11:12;;;;;;;5.05;2.60;;;5.40;91.60;;;;;;10534401;28;20083;-72
2020/12/27 11:16:13;;;;;;;4.72;2.85;;;5.40;91.50;;;;;;10525781;28;20044;-72
2020/12/27 11:21:15;;;;;;;5.88;2.78;;;5.30;91.80;;;;;;10525657;28;20109;-72
2020/12/27 11:26:19;;;;;;;5.65;2.78;;;5.30;91.90;;;;;;10520830;28;20051;-72
2020/12/27 11:31:21;;;;;;;5.68;3.00;;;5.30;92.00;;;;;;10517373;28;20526;-73
2020/12/27 11:36:22;;;;;;;5.72;2.83;;;5.20;92.20;;;;;;10532759;28;20089;-72
2020/12/27 11:41:24;;;;;;;5.38;2.78;;;5.20;92.30;;;;;;10532237;28;20102;-72
2020/12/27 11:46:26;;;;;;;3.63;2.30;;;5.20;92.50;;;;;;10529824;28;20302;-72
2020/12/27 11:51:28;;;;;;;5.13;2.60;;;5.30;92.60;;;;;;10532175;28;20123;-73
2020/12/27 11:56:29;;;;;;;5.35;2.70;;;5.30;92.70;;;;;;10531368;28;20048;-71
2020/12/27 12:01:30;;;;;;;6.22;2.40;;;5.20;93.10;;;;;;10519714;28;20076;-72
2020/12/27 12:06:32;;;;;;;7.10;2.97;;;5.40;93.10;;;;;;10507257;28;20088;-72
2020/12/27 12:11:37;;;;;;;6.35;2.40;;;5.50;93.10;;;;;;10533387;28;20087;-72
2020/12/27 12:16:39;;;;;;;4.45;2.15;;;5.60;93.10;;;;;;10531944;28;20079;-72
2020/12/27 12:21:40;;;;;;;5.70;2.70;;;5.70;92.80;;;;;;10532812;28;20534;-72
2020/12/27 12:26:42;;;;;;;6.20;2.20;;;5.60;92.90;;;;;;10531873;28;20044;-72
2020/12/27 12:31:44;;;;;;;4.25;2.10;;;5.70;93.40;;;;;;10531333;28;20135;-72
2020/12/27 12:36:49;;;;;;;4.70;2.40;;;5.80;93.70;;;;;;10533147;28;20483;-72
2020/12/27 12:41:50;;;;;;;4.53;2.50;;;5.80;94.00;;;;;;10532566;28;20044;-71
2020/12/27 12:46:52;;;;;;;4.82;2.28;;;5.80;94.10;;;;;;10538892;28;20084;-72
2020/12/27 12:51:53;;;;;;;6.75;2.90;;;5.70;95.10;;;;;;10540477;28;20484;-72
2020/12/27 12:56:55;;;;;;;5.18;3.25;;;5.60;94.50;;;;;;10540190;28;20677;-71
2020/12/27 13:01:56;;;;;;;6.88;3.25;;;5.30;94.40;;;;;;10531042;28;20091;-71
2020/12/27 13:06:58;;;;;;;5.65;3.00;;;5.10;95.00;;;;;;10502871;28;20784;-72
2020/12/27 13:11:59;;;;;;;4.88;2.78;;;5.10;95.20;;;;;;10534165;28;20575;-72
2020/12/27 13:17:01;;;;;;;6.40;3.67;;;5.10;95.50;;;;;;10530743;28;20135;-72
2020/12/27 13:22:03;;;;;;;6.63;3.28;;;5.10;95.50;;;;;;10531185;28;20048;-71
2020/12/27 13:27:09;;;;;;;4.95;2.90;;;5.10;95.40;;;;;;10510664;28;20098;-72
2020/12/27 13:32:11;;;;;;;8.00;3.45;;;5.00;95.20;;;;;;10526234;28;20476;-72
2020/12/27 13:37:14;;;;;;;5.95;3.33;;;4.90;95.40;;;;;;10496594;28;20040;-72
2020/12/27 13:42:18;;;;;;;5.35;3.22;;;4.90;95.60;;;;;;10490563;28;20044;-72
2020/12/27 13:47:19;;;;;;;6.22;3.47;;;4.80;95.30;;;;;;10525895;28;20091;-72
2020/12/27 13:52:20;;;;;;;5.22;3.05;;;4.60;96.00;;;;;;10529114;28;20132;-71
2020/12/27 13:57:22;;;;;;;6.68;3.40;;;4.50;96.60;;;;;;10527600;28;20050;-72
2020/12/27 14:02:27;;;;;;;7.78;3.35;;;4.40;96.60;;;;;;10529020;28;20044;-71
2020/12/27 14:07:29;;;;;;;4.78;3.30;;;4.40;96.60;;;;;;10501142;28;20101;-71
2020/12/27 14:12:30;;;;;;;5.47;3.13;;;4.30;97.20;;;;;;10528547;28;20048;-71
2020/12/27 14:17:32;;;;;;;4.75;3.15;;;4.30;97.30;;;;;;10528399;28;20075;-71
2020/12/27 14:22:33;;;;;;;5.25;3.22;;;4.30;97.40;;;;;;10527111;28;20090;-71
2020/12/27 14:27:35;;;;;;;5.90;3.10;;;4.40;97.20;;;;;;10520046;28;20127;-73
2020/12/27 14:32:36;;;;;;;4.97;3.33;;;4.50;97.00;;;;;;10527393;28;20736;-72
2020/12/27 14:37:38;;;;;;;5.00;2.92;;;4.60;97.20;;;;;;10528451;28;20079;-74
2020/12/27 14:42:40;;;;;;;6.45;2.70;;;4.60;97.50;;;;;;10521825;28;20045;-74
2020/12/27 14:47:42;;;;;;;4.78;2.30;;;4.70;97.40;;;;;;10517974;28;20793;-73
2020/12/27 14:52:47;;;;;;;4.13;2.45;;;4.80;97.10;;;;;;10526869;28;20105;-73
2020/12/27 14:57:49;;;;;;;6.03;2.60;;;4.80;96.90;;;;;;10526792;28;20044;-71
2020/12/27 15:02:52;;;;;;;5.88;2.80;;;4.80;97.20;;;;;;10527087;28;20126;-73
2020/12/27 15:07:53;;;;;;;4.93;2.78;;;4.80;97.30;;;;;;10510706;28;20059;-74
2020/12/27 15:12:55;;;;;;;5.63;2.95;;;4.80;97.30;;;;;;10526551;28;20503;-71
2020/12/27 15:17:56;;;;;;;5.32;2.60;;;4.80;97.60;;;;;;10525743;28;20412;-72
2020/12/27 15:22:58;;;;;;;4.90;2.90;;;4.70;97.60;;;;;;10526515;28;20127;-73
2020/12/27 15:28:01;;;;;;;3.80;2.65;;;4.70;98.00;;;;;;10513514;28;20139;-72
2020/12/27 15:33:04;;;;;;;5.18;2.55;;;4.70;97.70;;;;;;10523904;28;20055;-71
2020/12/27 15:38:06;;;;;;;3.85;2.33;;;4.70;97.40;;;;;;10525080;28;20613;-71
2020/12/27 15:43:07;;;;;;;4.13;2.60;;;4.70;97.60;;;;;;10525683;28;20067;-71
2020/12/27 15:48:08;;;;;;;4.07;2.60;;;4.80;97.80;;;;;;10525913;28;20143;-72
2020/12/27 15:53:10;;;;;;;3.83;2.33;;;4.80;98.20;;;;;;10525810;28;20260;-72
2020/12/27 15:58:12;;;;;;;5.43;3.00;;;4.80;97.90;;;;;;10525101;28;20044;-71
2020/12/27 16:03:13;;;;;;;3.83;2.25;;;4.80;98.30;;;;;;10514690;28;20044;-71
2020/12/27 16:08:16;;;;;;;3.50;2.35;;;4.80;97.90;;;;;;10500984;28;20056;-71
2020/12/27 16:13:19;;;;;;;3.67;2.30;;;4.80;97.70;;;;;;10500089;28;20125;-71
2020/12/27 16:18:25;;;;;;;3.83;2.92;;;4.90;98.10;;;;;;10530141;28;20062;-71
2020/12/27 16:23:26;;;;;;;2.70;1.75;;;4.90;97.80;;;;;;10532696;28;20543;-71
2020/12/27 16:28:28;;;;;;;3.55;1.90;;;4.90;97.60;;;;;;10532882;28;20482;-72
2020/12/27 16:33:29;;;;;;;3.35;2.13;;;4.80;98.00;;;;;;10533048;28;20142;-72
2020/12/27 16:38:31;;;;;;;2.80;1.95;;;5.00;98.20;;;;;;10532007;28;20134;-72
2020/12/27 16:43:33;;;;;;;3.20;2.35;;;4.90;98.20;;;;;;10531627;28;20131;-72
2020/12/27 16:48:34;;;;;;;4.10;1.83;;;4.90;98.60;;;;;;10532671;28;20044;-72
2020/12/27 16:53:37;;;;;;;3.20;2.00;;;4.90;98.50;;;;;;10532698;28;20415;-74
2020/12/27 16:58:38;;;;;;;3.42;2.17;;;5.10;98.30;;;;;;10531730;28;20508;-74
2020/12/27 17:03:41;;;;;;;3.20;2.10;;;5.00;97.80;;;;;;10531924;28;20385;-74
2020/12/27 17:08:44;;;;;;;3.40;2.10;;;5.00;98.30;;;;;;10517758;28;20135;-74
2020/12/27 17:13:46;;;;;;;3.25;2.00;;;4.90;98.70;;;;;;10525352;28;20591;-74
2020/12/27 17:18:48;;;;;;;3.22;2.22;;;4.90;98.80;;;;;;10519056;28;20436;-74
2020/12/27 17:23:50;;;;;;;5.07;2.20;;;4.90;99.20;;;;;;10528274;28;20052;-74
2020/12/27 17:28:51;;;;;;;3.95;2.55;;;4.80;99.00;;;;;;10522454;28;21098;-74
2020/12/27 17:33:53;;;;;;;3.17;2.10;;;4.80;99.20;;;;;;10512973;28;20127;-74
2020/12/27 17:38:55;;;;;;;7.10;3.00;;;4.70;99.40;;;;;;10514546;28;20432;-73
2020/12/27 17:44:03;;;;;;;4.85;2.83;;;4.80;99.20;;;;;;10530148;28;20059;-75
2020/12/27 17:49:04;;;;;;;4.50;2.80;;;4.80;99.30;;;;;;10489398;28;20143;-74
2020/12/27 17:54:06;;;;;;;3.63;2.30;;;4.80;99.60;;;;;;10528561;28;20137;-74
2020/12/27 17:59:07;;;;;;;4.50;2.70;;;4.70;99.00;;;;;;10529677;28;20059;-74
2020/12/27 18:04:09;;;;;;;5.25;2.60;;;4.70;99.50;;;;;;10527187;28;20396;-74
2020/12/27 18:09:11;;;;;;;4.22;2.35;;;4.70;99.50;;;;;;10521954;28;20128;-74
2020/12/27 18:14:13;;;;;;;4.00;2.72;;;4.80;99.40;;;;;;10505364;28;20497;-75
2020/12/27 18:19:15;;;;;;;5.03;3.15;;;4.90;99.20;;;;;;10528148;28;20062;-75
2020/12/27 18:24:17;;;;;;;5.35;3.13;;;4.80;99.60;;;;;;10529410;28;20142;-73
2020/12/27 18:29:18;;;;;;;3.28;2.30;;;4.70;99.50;;;;;;10522744;28;20076;-72
2020/12/27 18:34:20;;;;;;;4.18;2.72;;;4.70;99.30;;;;;;10526813;28;20444;-72
2020/12/27 18:39:21;;;;;;;4.88;3.58;;;4.70;99.70;;;;;;10509071;28;20072;-72
2020/12/27 18:44:23;;;;;;;6.70;4.38;;;4.60;99.90;;;;;;10524089;28;20139;-72
2020/12/27 18:49:25;;;;;;;4.38;2.90;;;4.60;99.90;;;;;;10505447;28;20044;-72
2020/12/27 18:54:27;;;;;;;3.85;2.65;;;4.60;99.90;;;;;;10504643;28;20504;-72
2020/12/27 18:59:29;;;;;;;4.07;3.00;;;4.60;99.90;;;;;;10509912;28;20074;-72
2020/12/27 19:04:31;;;;;;;4.18;2.67;;;4.60;99.90;;;;;;10505764;28;20082;-72
2020/12/27 19:09:33;;;;;;;4.97;3.03;;;4.70;99.90;;;;;;10505312;28;20056;-72
2020/12/27 19:14:34;;;;;;;4.40;3.05;;;4.70;99.90;;;;;;10503210;28;20135;-72
2020/12/27 19:19:36;;;;;;;5.50;2.90;;;4.60;99.90;;;;;;10502591;28;20050;-72
2020/12/27 19:24:38;;;;;;;4.65;3.10;;;4.60;99.90;;;;;;10504204;28;20506;-72
2020/12/27 19:29:40;;;;;;;5.60;3.30;;;4.50;99.90;;;;;;10505586;28;20136;-72
2020/12/27 19:34:42;;;;;;;4.50;3.25;;;4.60;99.90;;;;;;10498907;28;20044;-72
2020/12/27 19:39:45;;;;;;;4.20;2.67;;;4.60;99.90;;;;;;10503975;28;20105;-72
2020/12/27 19:44:46;;;;;;;3.65;2.38;;;4.70;99.90;;;;;;10501566;28;20052;-72
2020/12/27 19:49:48;;;;;;;4.32;2.67;;;4.80;99.90;;;;;;10501017;28;20044;-72
2020/12/27 19:54:50;;;;;;;4.50;2.97;;;4.80;99.90;;;;;;10521992;28;20124;-72
2020/12/27 19:59:54;;;;;;;4.50;2.90;;;4.80;99.90;;;;;;10532321;28;20054;-72
2020/12/27 20:04:56;;;;;;;6.55;2.90;;;4.90;99.90;;;;;;10492027;28;20051;-71
2020/12/27 20:09:57;;;;;;;3.92;3.03;;;5.00;99.90;;;;;;10504433;28;20518;-71
2020/12/27 20:14:59;;;;;;;6.38;4.45;;;4.90;99.90;;;;;;10509488;28;20044;-72
2020/12/27 20:20:01;;;;;;;4.00;2.38;;;5.00;99.90;;;;;;10530758;28;20139;-71
2020/12/27 20:25:03;;;;;;;4.43;3.10;;;5.00;99.90;;;;;;10528908;28;20608;-72
2020/12/27 20:30:05;;;;;;;3.55;2.13;;;5.00;99.90;;;;;;10520704;28;20083;-71
2020/12/27 20:35:06;;;;;;;3.60;2.10;;;5.00;99.90;;;;;;10534924;28;20078;-72
2020/12/27 20:40:10;;;;;;;3.63;2.20;;;5.10;99.90;;;;;;10535442;28;20074;-71
2020/12/27 20:45:11;;;;;;;4.95;2.40;;;5.10;99.90;;;;;;10535648;28;20422;-72
2020/12/27 20:50:13;;;;;;;3.25;1.90;;;4.90;99.90;;;;;;10536256;28;20052;-71
2020/12/27 20:55:16;;;;;;;2.65;1.60;;;4.90;99.90;;;;;;10536668;28;20044;-71
2020/12/27 21:00:17;;;;;;;2.75;1.75;;;5.00;99.90;;;;;;10533726;28;20083;-71
2020/12/27 21:05:19;;;;;;;2.90;1.48;;;5.10;99.90;;;;;;10534148;28;20127;-71
2020/12/27 21:10:21;;;;;;;3.17;2.10;;;5.10;99.90;;;;;;10534544;28;20538;-71
2020/12/27 21:15:22;;;;;;;2.53;1.52;;;5.20;99.90;;;;;;10533818;28;20127;-71
2020/12/27 21:20:23;;;;;;;3.08;1.95;;;5.20;99.90;;;;;;10534111;28;20051;-70
2020/12/27 21:25:25;;;;;;;2.97;1.80;;;5.20;99.90;;;;;;10526078;28;20547;-70
2020/12/27 21:30:26;;;;;;;2.53;1.60;;;5.40;99.90;;;;;;10522883;28;20512;-70
2020/12/27 21:35:29;;;;;;;2.75;1.80;;;5.30;99.90;;;;;;10531159;28;20442;-70
2020/12/27 21:40:31;;;;;;;2.90;1.90;;;5.30;99.90;;;;;;10532711;28;20048;-70
2020/12/27 21:45:33;;;;;;;3.30;1.88;;;5.40;99.90;;;;;;10531575;28;20484;-70
2020/12/27 21:50:37;;;;;;;4.05;2.20;;;5.40;99.90;;;;;;10531753;28;20138;-70
2020/12/27 21:55:39;;;;;;;4.55;2.90;;;5.40;99.90;;;;;;10531564;28;20079;-70
2020/12/27 22:00:40;;;;;;;4.18;2.08;;;5.30;99.90;;;;;;10530329;28;20126;-70
2020/12/27 22:05:41;;;;;;;2.72;1.80;;;5.30;99.90;;;;;;10531181;28;20119;-70
2020/12/27 22:10:43;;;;;;;3.88;2.13;;;5.30;99.90;;;;;;10530588;28;20056;-70
2020/12/27 22:15:44;;;;;;;3.97;2.50;;;5.40;99.90;;;;;;10530291;28;20151;-70
2020/12/27 22:20:46;;;;;;;2.97;1.90;;;5.40;99.90;;;;;;10530099;28;20170;-70
2020/12/27 22:25:48;;;;;;;3.42;2.00;;;5.50;99.90;;;;;;10523298;28;20046;-70
2020/12/27 22:30:50;;;;;;;3.03;2.00;;;5.50;99.90;;;;;;10530030;28;20491;-70
2020/12/27 22:35:51;;;;;;;3.60;2.42;;;5.50;99.90;;;;;;10529738;28;20314;-70
2020/12/27 22:40:52;;;;;;;3.92;2.50;;;5.40;99.90;;;;;;10529125;28;20080;-70
2020/12/27 22:45:54;;;;;;;3.60;2.45;;;5.40;99.90;;;;;;10529570;28;20044;-71
2020/12/27 22:50:55;;;;;;;4.07;2.78;;;5.40;99.90;;;;;;10528228;28;20079;-70
2020/12/27 22:55:57;;;;;;;3.50;2.50;;;5.50;99.90;;;;;;10529143;28;20046;-71
2020/12/27 23:00:59;;;;;;;3.75;2.70;;;5.50;99.90;;;;;;10527807;28;20127;-70
2020/12/27 23:06:00;;;;;;;3.25;2.28;;;5.60;99.90;;;;;;10528594;28;20044;-71
2020/12/27 23:11:02;;;;;;;3.63;2.10;;;5.70;99.90;;;;;;10527797;28;20086;-70
2020/12/27 23:16:07;;;;;;;3.75;2.08;;;5.60;99.90;;;;;;10528064;28;20124;-70
2020/12/27 23:21:09;;;;;;;4.10;2.40;;;5.40;99.90;;;;;;10528251;28;20048;-70
2020/12/27 23:26:10;;;;;;;4.28;2.58;;;5.40;99.90;;;;;;10519228;28;20040;-71
2020/12/27 23:31:11;;;;;;;3.88;2.42;;;5.40;99.90;;;;;;10527686;28;20144;-70
2020/12/27 23:36:14;;;;;;;3.55;2.50;;;5.40;99.90;;;;;;10503389;28;20044;-71
2020/12/27 23:41:15;;;;;;;4.45;2.30;;;5.50;99.90;;;;;;10502625;28;20135;-70
2020/12/27 23:46:16;;;;;;;3.42;2.38;;;5.50;99.90;;;;;;10526285;28;20567;-70
2020/12/27 23:51:18;;;;;;;3.70;2.40;;;5.50;99.90;;;;;;10525417;28;20070;-70
2020/12/27 23:56:19;;;;;;;3.92;2.58;;;5.60;99.90;;;;;;10521432;28;20056;-71
